Time;durP1;ratioP1;P1;durP2;ratioP2;P2;SDS_P1;SDS_P2;PMS_P1;PMS_P2;Temp;Humidity;BMP_temperature;BMP_pressure;BME280_temperature;BME280_humidity;BME280_pressure;Samples;Min_cycle;Max_cycle;Signal;HPM_P1;HPM_P2
2022/01/28 00:00:13;;;;;;;;;5.00;5.00;;;;;21.38;50.18;99468.80;110965;1261;19656;-68
2022/01/28 00:03:05;;;;;;;;;5.67;5.00;;;;;21.37;50.15;99466.49;110920;1262;18600;-69
2022/01/28 00:05:32;;;;;;;;;5.00;5.00;;;;;21.38;50.07;99461.96;110910;1261;18952;-68
2022/01/28 00:08:00;;;;;;;;;5.33;5.33;;;;;21.36;50.08;99457.45;111026;1262;18362;-69
2022/01/28 00:10:27;;;;;;;;;3.67;3.67;;;;;21.36;50.12;99452.95;110931;1262;18920;-69
2022/01/28 00:15:45;;;;;;;;;5.00;5.00;;;;;21.37;49.89;99448.30;111015;1262;18470;-69
2022/01/28 00:40:24;;;;;;;;;4.00;4.00;;;;;21.34;49.80;99420.65;110962;1261;19704;-67
2022/01/28 00:42:51;;;;;;;;;6.00;5.00;;;;;21.33;49.65;99416.59;110858;1262;22706;-68
2022/01/28 00:45:19;;;;;;;;;6.00;5.00;;;;;21.34;49.49;99427.41;111036;1261;19010;-68
2022/01/28 00:47:47;;;;;;;;;5.00;5.00;;;;;21.33;49.69;99427.66;111091;1262;18420;-68
2022/01/28 00:50:14;;;;;;;;;5.00;5.00;;;;;21.34;49.52;99433.78;110976;1262;20087;-68
2022/01/28 00:52:42;;;;;;;;;5.67;5.00;;;;;21.33;49.66;99430.31;110933;1262;19591;-68
2022/01/28 00:55:09;;;;;;;;;5.50;5.50;;;;;21.33;49.61;99425.49;111060;1261;28149;-67
2022/01/28 00:57:36;;;;;;;;;5.00;4.33;;;;;21.30;49.49;99422.30;110968;1262;19732;-68
2022/01/28 01:00:04;;;;;;;;;5.00;5.00;;;;;21.33;49.34;99423.94;111031;1262;19338;-69
2022/01/28 01:02:31;;;;;;;;;5.00;5.00;;;;;21.34;49.29;99428.89;111011;1262;21551;-68
2022/01/28 01:04:58;;;;;;;;;6.00;6.00;;;;;21.33;49.41;99431.14;110960;1262;18869;-68
2022/01/28 01:07:25;;;;;;;;;3.00;3.00;;;;;21.33;49.54;99429.13;110945;1262;19689;-70
2022/01/28 01:09:52;;;;;;;;;5.67;5.00;;;;;21.34;49.28;99426.54;110933;1262;18506;-69
2022/01/28 01:12:22;;;;;;;;;3.00;3.00;;;;;21.33;49.35;99428.97;111010;1262;18292;-68
2022/01/28 01:14:50;;;;;;;;;6.00;5.00;;;;;21.34;49.42;99424.68;111024;1261;18707;-70
2022/01/28 01:17:28;;;;;;;;;3.00;3.00;;;;;21.34;49.40;99421.30;111052;1262;18427;-71
2022/01/28 01:20:09;;;;;;;;;6.00;6.00;;;;;21.30;49.37;99417.61;110926;1261;21632;-68
2022/01/28 01:22:39;;;;;;;;;5.00;5.00;;;;;21.33;49.23;99427.70;110958;1262;18999;-68
2022/01/28 01:25:15;;;;;;;;;4.33;4.33;;;;;21.33;49.39;99418.48;110957;1262;21744;-69
2022/01/28 01:27:42;;;;;;;;;3.00;3.00;;;;;21.32;49.34;99408.39;110916;1262;18020;-70
2022/01/28 01:30:10;;;;;;;;;4.33;4.33;;;;;21.32;49.38;99414.42;111084;1261;21580;-68
2022/01/28 01:32:37;;;;;;;;;3.00;3.00;;;;;21.32;49.43;99426.20;111007;1261;18439;-68
2022/01/28 01:35:04;;;;;;;;;5.00;5.00;;;;;21.32;49.45;99438.15;111007;1262;19556;-68
2022/01/28 01:37:31;;;;;;;;;3.00;3.00;;;;;21.32;49.30;99425.61;110938;1262;20329;-67
2022/01/28 01:39:59;;;;;;;;;5.67;5.33;;;;;21.32;49.50;99425.33;110977;1262;18303;-67
2022/01/28 01:42:34;;;;;;;;;3.00;3.00;;;;;21.32;49.23;99436.23;111100;1262;22105;-68
2022/01/28 01:45:40;;;;;;;;;5.00;5.00;;;;;21.32;49.19;99437.98;110992;1262;19008;-68
2022/01/28 01:53:31;;;;;;;;;6.00;5.00;;;;;21.32;49.33;99437.91;110953;1262;20439;-68
2022/01/28 01:55:59;;;;;;;;;5.00;5.00;;;;;21.31;49.23;99446.02;110940;1262;19710;-68
2022/01/28 01:58:30;;;;;;;;;5.00;3.33;;;;;21.31;49.19;99450.33;110906;1262;18021;-68
2022/01/28 02:00:58;;;;;;;;;5.33;5.33;;;;;21.31;49.22;99443.88;110930;1262;18779;-68
2022/01/28 02:03:25;;;;;;;;;5.00;3.00;;;;;21.30;49.14;99449.27;110943;1262;18443;-68
2022/01/28 02:05:52;;;;;;;;;3.00;3.00;;;;;21.30;49.15;99462.70;110865;1261;139887;-68
2022/01/28 02:08:20;;;;;;;;;2.00;2.00;;;;;21.30;49.14;99454.98;110964;1261;18891;-67
2022/01/28 02:10:49;;;;;;;;;3.00;3.00;;;;;21.31;49.16;99455.77;110969;1262;18619;-68
2022/01/28 02:13:16;;;;;;;;;3.00;3.00;;;;;21.30;49.06;99456.66;111062;1261;20957;-68
2022/01/28 02:15:43;;;;;;;;;3.00;3.00;;;;;21.31;49.16;99467.85;110895;1262;20627;-68
2022/01/28 02:18:11;;;;;;;;;3.00;3.00;;;;;21.31;49.13;99460.05;110961;1262;18367;-68
2022/01/28 02:20:42;;;;;;;;;5.00;3.00;;;;;21.30;49.11;99469.08;110956;1262;19787;-67
2022/01/28 02:23:09;;;;;;;;;5.00;3.00;;;;;21.29;49.16;99464.95;110947;1262;20711;-68
2022/01/28 02:25:36;;;;;;;;;4.33;3.67;;;;;21.29;49.03;99472.27;110954;1262;20354;-68
2022/01/28 02:28:05;;;;;;;;;2.33;2.33;;;;;21.30;49.09;99483.23;110901;1262;18260;-67
2022/01/28 02:30:32;;;;;;;;;4.33;3.00;;;;;21.30;49.02;99474.67;111111;1261;19539;-68
2022/01/28 02:33:09;;;;;;;;;2.00;2.00;;;;;21.29;49.17;99476.23;110921;1262;18425;-68
2022/01/28 02:35:37;;;;;;;;;4.33;4.33;;;;;21.28;49.15;99480.48;110985;1262;21734;-68
2022/01/28 02:38:06;;;;;;;;;5.00;5.00;;;;;21.29;49.02;99482.73;110994;1261;21100;-69
2022/01/28 02:40:34;;;;;;;;;3.00;3.00;;;;;21.29;49.10;99488.93;110906;1262;18835;-69
2022/01/28 02:43:14;;;;;;;;;3.00;3.00;;;;;21.30;49.07;99492.34;111021;1261;22121;-69
2022/01/28 02:45:42;;;;;;;;;3.00;3.00;;;;;21.30;49.05;99496.40;111011;1262;21958;-68
2022/01/28 02:48:16;;;;;;;;;3.00;3.00;;;;;21.31;48.99;99501.27;111044;1262;18356;-69
2022/01/28 02:50:51;;;;;;;;;4.33;3.67;;;;;21.30;48.96;99499.76;110988;1261;18045;-68
2022/01/28 02:53:23;;;;;;;;;3.00;3.00;;;;;21.30;48.86;99501.19;110977;1262;19445;-68
2022/01/28 02:55:57;;;;;;;;;3.00;3.00;;;;;21.30;48.79;99501.90;110928;1262;20821;-67
2022/01/28 02:58:26;;;;;;;;;3.00;3.00;;;;;21.30;48.90;99508.31;110913;1262;18209;-68
2022/01/28 03:00:54;;;;;;;;;3.00;3.00;;;;;21.29;48.99;99513.98;110953;1262;18776;-68
2022/01/28 03:03:23;;;;;;;;;2.00;2.00;;;;;21.30;49.02;99515.19;111011;1262;21565;-69
2022/01/28 03:05:50;;;;;;;;;3.00;3.00;;;;;21.30;48.97;99520.77;110979;1262;18271;-68
2022/01/28 03:08:17;;;;;;;;;3.00;3.00;;;;;21.30;48.80;99519.00;110967;1262;22551;-68
2022/01/28 03:11:01;;;;;;;;;3.00;3.00;;;;;21.30;48.99;99528.86;110992;1262;18293;-67
2022/01/28 03:13:33;;;;;;;;;2.00;2.00;;;;;21.30;48.86;99524.50;111025;1262;18012;-68
2022/01/28 03:16:11;;;;;;;;;2.00;2.00;;;;;21.30;48.84;99534.05;110938;1261;20232;-68
2022/01/28 03:18:50;;;;;;;;;2.67;2.67;;;;;21.29;48.79;99530.58;111059;1262;19841;-68
2022/01/28 03:21:23;;;;;;;;;2.00;2.00;;;;;21.30;48.89;99538.84;110972;1262;18055;-68
2022/01/28 03:23:51;;;;;;;;;2.33;2.33;;;;;21.29;48.67;99544.88;110996;1262;21738;-68
2022/01/28 03:26:18;;;;;;;;;2.67;2.67;;;;;21.29;48.66;99541.30;111008;1261;18375;-68
2022/01/28 03:28:45;;;;;;;;;5.00;5.00;;;;;21.29;48.82;99544.55;110930;1261;18853;-69
2022/01/28 03:31:13;;;;;;;;;2.67;2.67;;;;;21.29;48.86;99544.50;111004;1262;19060;-69
2022/01/28 03:33:40;;;;;;;;;3.00;3.00;;;;;21.29;48.66;99546.20;111071;1262;18343;-68
2022/01/28 03:36:09;;;;;;;;;4.33;4.33;;;;;21.29;48.74;99553.66;110969;1262;22627;-68
2022/01/28 03:38:37;;;;;;;;;2.67;2.67;;;;;21.30;48.75;99555.77;110974;1262;20222;-67
2022/01/28 03:41:04;;;;;;;;;3.00;3.00;;;;;21.29;48.72;99551.98;110947;1262;18237;-68
2022/01/28 03:43:32;;;;;;;;;2.00;2.00;;;;;21.29;48.73;99550.59;110918;1262;18091;-67
2022/01/28 03:45:59;;;;;;;;;2.00;2.00;;;;;21.29;48.75;99547.16;110910;1262;18705;-67
2022/01/28 03:48:26;;;;;;;;;4.33;4.33;;;;;21.28;48.91;99548.33;110940;1262;18367;-67
2022/01/28 03:50:53;;;;;;;;;3.00;3.00;;;;;21.29;48.83;99555.84;110952;1262;19654;-68
2022/01/28 03:53:21;;;;;;;;;3.00;3.00;;;;;21.30;48.69;99553.17;111005;1262;18950;-70
2022/01/28 03:55:49;;;;;;;;;3.67;3.00;;;;;21.29;48.59;99560.02;110932;1262;18648;-68
2022/01/28 03:58:16;;;;;;;;;4.33;4.33;;;;;21.28;48.87;99557.80;110890;1261;18120;-69
2022/01/28 04:00:44;;;;;;;;;2.00;2.00;;;;;21.27;48.90;99567.80;110943;1262;19059;-69
2022/01/28 04:03:24;;;;;;;;;4.33;3.00;;;;;21.27;48.64;99571.11;111009;1262;18304;-68
2022/01/28 04:11:26;;;;;;;;;2.50;2.50;;;;;21.27;48.73;99579.49;110978;1262;18662;-69
2022/01/28 04:11:42;;;;;;;;;3.33;2.67;;;;;21.27;48.82;99582.17;111017;1262;18287;-68
2022/01/28 04:14:13;;;;;;;;;3.33;2.67;;;;;21.27;48.68;99583.02;111014;1261;17962;-68
2022/01/28 04:19:25;;;;;;;;;2.67;2.67;;;;;21.27;48.86;99589.05;110915;1262;19053;-68
2022/01/28 04:21:52;;;;;;;;;3.00;3.00;;;;;21.27;48.64;99596.98;110861;1264;18074;-67
2022/01/28 04:24:20;;;;;;;;;4.67;4.67;;;;;21.27;48.75;99605.31;110883;1264;22543;-68
2022/01/28 04:26:47;;;;;;;;;4.33;4.33;;;;;21.26;48.80;99607.30;110979;1261;18391;-68
2022/01/28 04:29:14;;;;;;;;;2.00;2.00;;;;;21.27;48.55;99612.61;110989;1261;21622;-68
2022/01/28 04:31:44;;;;;;;;;3.00;3.00;;;;;21.27;48.55;99620.09;111040;1261;19126;-68
2022/01/28 04:34:12;;;;;;;;;4.33;4.33;;;;;21.27;48.61;99626.00;110921;1262;21067;-67
2022/01/28 04:36:47;;;;;;;;;2.00;2.00;;;;;21.27;48.55;99628.88;110986;1262;21694;-68
2022/01/28 04:39:21;;;;;;;;;2.33;2.33;;;;;21.27;48.71;99634.96;111034;1261;18660;-70
2022/01/28 04:41:58;;;;;;;;;3.00;3.00;;;;;21.26;48.41;99641.38;111012;1261;18918;-69
2022/01/28 04:44:33;;;;;;;;;2.00;2.00;;;;;21.26;48.52;99644.02;110997;1262;18110;-68
2022/01/28 04:47:06;;;;;;;;;3.00;2.67;;;;;21.26;48.62;99647.88;110936;1262;18990;-68
2022/01/28 04:49:47;;;;;;;;;3.00;3.00;;;;;21.26;48.37;99657.90;111053;1261;19571;-68
2022/01/28 04:52:42;;;;;;;;;2.67;2.67;;;;;21.27;48.54;99658.20;110966;1262;20771;-68
2022/01/28 04:55:20;;;;;;;;;2.33;2.33;;;;;21.27;48.36;99666.48;110947;1262;18820;-68
2022/01/28 04:58:02;;;;;;;;;2.00;2.00;;;;;21.27;48.28;99671.81;111011;1261;18878;-67
2022/01/28 05:00:40;;;;;;;;;3.00;3.00;;;;;21.27;48.23;99681.46;110882;1262;18970;-69
2022/01/28 05:03:25;;;;;;;;;5.67;4.00;;;;;21.28;48.32;99685.70;111074;1262;18586;-68
2022/01/28 05:25:48;;;;;;;;;2.33;2.33;;;;;21.25;48.09;99730.17;109760;1271;18276;-68
2022/01/28 05:28:18;;;;;;;;;2.33;2.33;;;;;21.25;48.13;99738.53;110084;1270;21494;-67
2022/01/28 05:30:46;;;;;;;;;3.00;3.00;;;;;21.25;48.07;99753.33;110130;1271;18945;-68
2022/01/28 05:33:13;;;;;;;;;3.00;2.33;;;;;21.24;48.02;99759.74;110059;1271;17995;-70
2022/01/28 05:35:40;;;;;;;;;2.00;2.00;;;;;21.25;47.91;99758.61;110014;1270;18906;-69
2022/01/28 05:38:07;;;;;;;;;5.00;5.00;;;;;21.24;47.84;99767.80;110037;1271;20435;-68
2022/01/28 05:40:34;;;;;;;;;5.00;5.00;;;;;21.25;48.00;99780.95;110063;1270;18431;-68
2022/01/28 05:43:02;;;;;;;;;2.67;2.67;;;;;21.24;48.10;99784.65;110104;1270;22189;-68
2022/01/28 05:45:29;;;;;;;;;3.00;3.00;;;;;21.24;47.87;99792.82;110056;1270;18871;-68
2022/01/28 05:47:58;;;;;;;;;6.00;5.00;;;;;21.24;47.81;99799.23;110073;1270;18551;-68
2022/01/28 05:50:25;;;;;;;;;3.00;3.00;;;;;21.24;47.92;99808.04;110060;1270;18767;-68
2022/01/28 05:52:52;;;;;;;;;5.00;5.00;;;;;21.24;48.01;99816.60;110039;1271;18411;-68
2022/01/28 05:55:19;;;;;;;;;3.00;3.00;;;;;21.25;47.74;99824.17;110577;1267;18556;-69
2022/01/28 05:57:47;;;;;;;;;4.33;4.33;;;;;21.25;47.93;99830.17;110917;1262;18844;-68
2022/01/28 06:00:14;;;;;;;;;3.00;3.00;;;;;21.25;47.93;99832.98;110888;1262;21695;-68
2022/01/28 06:02:41;;;;;;;;;3.67;3.00;;;;;21.29;47.63;99842.50;111001;1261;18247;-68
2022/01/28 06:05:09;;;;;;;;;5.00;3.00;;;;;21.33;47.81;99843.95;110987;1261;18751;-68
2022/01/28 06:07:41;;;;;;;;;3.00;3.00;;;;;21.35;48.18;99854.79;111005;1262;21060;-68
2022/01/28 06:10:08;;;;;;;;;5.00;3.67;;;;;21.42;49.03;99864.67;110935;1262;18613;-68
2022/01/28 06:12:36;;;;;;;;;3.00;3.00;;;;;21.48;49.25;99871.45;110967;1261;18765;-67
2022/01/28 06:15:03;;;;;;;;;4.33;4.33;;;;;21.48;49.61;99882.02;110921;1262;20931;-67
2022/01/28 06:17:30;;;;;;;;;6.00;5.00;;;;;21.47;49.16;99886.64;110958;1261;21636;-68
2022/01/28 06:19:57;;;;;;;;;3.00;3.00;;;;;21.44;49.20;99896.73;110913;1261;18600;-69
2022/01/28 06:22:24;;;;;;;;;3.00;3.00;;;;;21.43;49.10;99903.90;110984;1261;19777;-69
2022/01/28 06:24:52;;;;;;;;;5.00;5.00;;;;;21.44;49.22;99905.23;110991;1261;17955;-68
2022/01/28 06:27:19;;;;;;;;;5.00;3.00;;;;;21.45;48.96;99920.46;110946;1262;21938;-69
2022/01/28 06:29:46;;;;;;;;;3.00;3.00;;;;;21.45;49.21;99928.94;110987;1261;19148;-69
2022/01/28 06:32:13;;;;;;;;;3.00;3.00;;;;;21.46;49.20;99934.64;110978;1261;18103;-70
2022/01/28 06:34:41;;;;;;;;;3.00;3.00;;;;;21.48;49.36;99941.64;110882;1261;21398;-69
2022/01/28 06:37:08;;;;;;;;;5.00;3.00;;;;;21.48;49.29;99950.02;110944;1261;22073;-69
2022/01/28 06:39:35;;;;;;;;;2.67;2.67;;;;;21.46;49.17;99954.77;110960;1262;21260;-68
2022/01/28 06:42:02;;;;;;;;;2.33;2.33;;;;;21.44;49.22;99966.67;110881;1261;18880;-68
2022/01/28 06:44:31;;;;;;;;;3.67;3.67;;;;;21.43;49.11;99972.09;110911;1261;18335;-68
2022/01/28 06:46:58;;;;;;;;;2.33;2.00;;;;;21.42;49.01;99979.14;110979;1260;18009;-68
2022/01/28 06:49:26;;;;;;;;;3.67;3.67;;;;;21.42;48.92;99980.69;110954;1262;18774;-70
2022/01/28 06:51:53;;;;;;;;;1.00;1.00;;;;;21.42;49.02;99990.96;110930;1261;20440;-70
2022/01/28 06:54:20;;;;;;;;;3.00;3.00;;;;;21.41;49.21;99996.40;111013;1261;18136;-70
2022/01/28 06:56:47;;;;;;;;;2.67;2.67;;;;;21.39;49.27;100003.46;110976;1262;19292;-70
2022/01/28 06:59:17;;;;;;;;;2.00;2.00;;;;;21.38;48.99;100011.14;110983;1261;27671;-69
2022/01/28 07:01:44;;;;;;;;;3.00;3.00;;;;;21.37;49.12;100016.17;110990;1261;19025;-70
2022/01/28 07:04:12;;;;;;;;;5.00;5.00;;;;;21.37;49.26;100023.09;111045;1261;18758;-71
2022/01/28 07:06:39;;;;;;;;;5.00;3.00;;;;;21.35;49.24;100032.13;111032;1262;20790;-69
2022/01/28 07:09:07;;;;;;;;;5.00;5.00;;;;;21.36;49.23;100037.46;110939;1262;18123;-69
2022/01/28 07:11:34;;;;;;;;;2.00;1.00;;;;;21.39;49.11;100047.34;111021;1261;19444;-71
2022/01/28 07:14:02;;;;;;;;;6.00;3.00;;;;;21.40;49.00;100051.92;110984;1261;21920;-70
2022/01/28 07:16:30;;;;;;;;;4.33;3.67;;;;;21.41;49.02;100060.67;110971;1261;18027;-69
2022/01/28 07:18:58;;;;;;;;;3.00;3.00;;;;;21.39;49.00;100062.02;111059;1262;21293;-71
2022/01/28 07:21:25;;;;;;;;;4.33;3.00;;;;;21.37;48.97;100071.73;111010;1261;21648;-70
2022/01/28 07:23:52;;;;;;;;;5.00;5.00;;;;;21.37;49.13;100076.30;111079;1261;18086;-69
2022/01/28 07:26:19;;;;;;;;;3.00;3.00;;;;;21.38;48.90;100085.99;111061;1261;20269;-69
2022/01/28 07:28:48;;;;;;;;;6.00;5.00;;;;;21.37;49.10;100094.43;111006;1262;20793;-70
2022/01/28 07:31:18;;;;;;;;;12.00;9.00;;;;;21.36;49.03;100096.92;110903;1263;18614;-71
2022/01/28 07:33:45;;;;;;;;;15.00;14.00;;;;;21.41;49.19;100106.48;110971;1261;18684;-71
2022/01/28 07:36:12;;;;;;;;;22.33;21.00;;;;;21.44;49.35;100114.48;110973;1262;21353;-69
2022/01/28 07:38:39;;;;;;;;;22.00;20.33;;;;;21.39;49.40;100124.55;110980;1262;18489;-72
2022/01/28 07:41:07;;;;;;;;;17.00;17.00;;;;;21.34;49.11;100136.75;110969;1262;21558;-71
2022/01/28 07:43:39;;;;;;;;;15.67;14.00;;;;;21.22;48.25;100141.23;110950;1262;19654;-69
2022/01/28 07:46:06;;;;;;;;;17.00;17.00;;;;;21.03;47.93;100146.64;111049;1261;18315;-70
2022/01/28 07:48:34;;;;;;;;;16.33;13.67;;;;;21.04;47.46;100150.98;110917;1262;18767;-71
2022/01/28 07:51:01;;;;;;;;;19.67;18.00;;;;;21.11;47.86;100164.84;110905;1262;19001;-69
2022/01/28 07:53:28;;;;;;;;;19.00;18.00;;;;;21.19;47.80;100167.19;110960;1262;22416;-70
2022/01/28 07:55:56;;;;;;;;;15.00;15.00;;;;;21.25;48.05;100171.56;110888;1262;21541;-69
2022/01/28 07:58:23;;;;;;;;;17.00;16.33;;;;;21.30;48.26;100181.79;111017;1262;18757;-68
2022/01/28 08:00:50;;;;;;;;;19.00;18.00;;;;;21.31;48.30;100194.60;110965;1261;18668;-67
2022/01/28 08:03:18;;;;;;;;;13.00;11.00;;;;;21.10;47.86;100198.11;111044;1261;21078;-67
2022/01/28 08:05:45;;;;;;;;;16.67;14.00;;;;;20.79;47.69;100207.84;110968;1262;18719;-71
2022/01/28 08:08:13;;;;;;;;;11.33;10.67;;;;;20.78;47.80;100215.19;110947;1262;18984;-70
2022/01/28 08:10:41;;;;;;;;;12.33;12.33;;;;;20.96;48.05;100225.82;110986;1261;22080;-71
2022/01/28 08:13:08;;;;;;;;;11.00;10.67;;;;;21.16;48.32;100234.10;110984;1261;18828;-72
2022/01/28 08:15:36;;;;;;;;;10.00;9.67;;;;;21.28;48.78;100236.59;110976;1261;18764;-73
2022/01/28 08:18:03;;;;;;;;;10.33;10.33;;;;;21.36;49.02;100243.98;110986;1261;19511;-71
2022/01/28 08:20:31;;;;;;;;;8.00;7.00;;;;;21.39;48.97;100251.54;110963;1261;18819;-70
2022/01/28 08:22:58;;;;;;;;;11.00;10.33;;;;;21.41;49.32;100256.86;111013;1262;23058;-73
2022/01/28 08:25:25;;;;;;;;;9.00;9.00;;;;;21.45;49.01;100264.96;110944;1261;20971;-67
2022/01/28 08:27:52;;;;;;;;;10.00;9.67;;;;;21.45;48.70;100259.16;110838;1261;18790;-67
2022/01/28 08:30:20;;;;;;;;;11.00;11.00;;;;;21.47;49.06;100268.38;110809;1261;19449;-68
2022/01/28 08:32:47;;;;;;;;;14.33;14.00;;;;;21.53;48.71;100276.33;110864;1261;21909;-68
2022/01/28 08:35:15;;;;;;;;;15.67;14.00;;;;;21.51;48.37;100278.02;110930;1262;23648;-67
2022/01/28 08:37:42;;;;;;;;;13.67;13.00;;;;;21.50;48.47;100289.77;110993;1262;19715;-67
2022/01/28 08:40:09;;;;;;;;;18.00;14.00;;;;;21.34;47.80;100302.12;110996;1261;21743;-67
2022/01/28 08:42:37;;;;;;;;;13.00;10.33;;;;;21.21;46.90;100312.56;110984;1261;18834;-68
2022/01/28 08:45:04;;;;;;;;;12.00;10.00;;;;;21.15;46.28;100320.88;110931;1262;18905;-69
2022/01/28 08:47:32;;;;;;;;;13.00;11.00;;;;;21.12;46.04;100332.56;110935;1262;21477;-67
2022/01/28 08:49:59;;;;;;;;;13.00;11.67;;;;;21.03;45.31;100343.87;110957;1262;22198;-68
2022/01/28 08:52:26;;;;;;;;;13.67;13.67;;;;;21.03;45.39;100348.10;111003;1262;18867;-67
2022/01/28 08:54:53;;;;;;;;;13.50;10.00;;;;;21.15;46.22;100353.98;111090;1261;21301;-67
2022/01/28 08:57:21;;;;;;;;;10.00;9.00;;;;;21.23;46.26;100354.44;111018;1262;22175;-69
2022/01/28 08:59:48;;;;;;;;;13.33;13.00;;;;;21.32;47.19;100362.19;110952;1262;31255;-68
2022/01/28 09:02:15;;;;;;;;;16.00;14.67;;;;;21.35;48.12;100373.64;110940;1262;20227;-67
2022/01/28 09:04:42;;;;;;;;;11.67;11.67;;;;;21.36;48.53;100381.02;110864;1262;20375;-67
2022/01/28 09:07:10;;;;;;;;;11.00;10.00;;;;;21.40;48.61;100386.15;110956;1261;19144;-72
2022/01/28 09:09:47;;;;;;;;;17.00;13.00;;;;;21.44;48.78;100392.41;110934;1262;22606;-72
2022/01/28 09:12:30;;;;;;;;;18.33;13.33;;;;;21.47;48.77;100395.86;110971;1262;22780;-72
2022/01/28 09:14:58;;;;;;;;;15.67;14.33;;;;;21.52;48.95;100399.70;110900;1262;23452;-69
2022/01/28 09:17:25;;;;;;;;;17.00;15.00;;;;;21.55;49.26;100406.91;110922;1262;20857;-69
2022/01/28 09:19:52;;;;;;;;;14.33;13.33;;;;;21.56;49.77;100415.98;110872;1262;22205;-70
2022/01/28 09:22:19;;;;;;;;;12.33;11.00;;;;;21.56;49.93;100427.31;110922;1261;22074;-70
2022/01/28 09:24:47;;;;;;;;;13.33;11.67;;;;;21.56;49.91;100428.45;111015;1262;25558;-68
2022/01/28 09:27:14;;;;;;;;;11.67;11.00;;;;;21.55;49.87;100437.13;110961;1262;20965;-68
2022/01/28 09:29:42;;;;;;;;;11.00;10.33;;;;;21.52;49.97;100436.31;110964;1262;19948;-67
2022/01/28 09:32:09;;;;;;;;;14.00;13.00;;;;;21.51;50.07;100447.05;110916;1262;19726;-71
2022/01/28 09:34:36;;;;;;;;;18.00;17.00;;;;;21.55;50.18;100450.59;110948;1261;18820;-70
2022/01/28 09:37:04;;;;;;;;;13.67;13.67;;;;;21.57;50.29;100454.84;110962;1261;19287;-74
2022/01/28 09:39:33;;;;;;;;;15.00;13.00;;;;;21.59;50.30;100459.58;110873;1262;19457;-72
2022/01/28 09:42:03;;;;;;;;;13.33;13.00;;;;;21.58;50.05;100465.73;110963;1262;18841;-71
2022/01/28 09:44:30;;;;;;;;;11.67;10.00;;;;;21.57;50.08;100466.92;111000;1262;18801;-69
2022/01/28 09:46:58;;;;;;;;;14.00;11.00;;;;;21.54;49.94;100475.08;110984;1262;25378;-70
2022/01/28 09:49:25;;;;;;;;;13.00;12.33;;;;;21.53;50.16;100476.66;111026;1261;18788;-69
2022/01/28 09:51:52;;;;;;;;;14.67;13.67;;;;;21.54;50.11;100490.22;110976;1262;18967;-70
2022/01/28 09:54:19;;;;;;;;;13.00;11.00;;;;;21.59;50.18;100492.68;111049;1262;19845;-73
2022/01/28 09:56:46;;;;;;;;;12.33;11.67;;;;;21.60;50.16;100483.22;111005;1262;18854;-70
2022/01/28 09:59:14;;;;;;;;;12.00;10.50;;;;;21.62;50.21;100491.17;111032;1262;22435;-70
2022/01/28 10:01:41;;;;;;;;;14.00;11.67;;;;;21.66;50.02;100499.62;111004;1262;19732;-68
2022/01/28 10:04:09;;;;;;;;;12.33;10.67;;;;;21.65;50.30;100501.58;111027;1261;19057;-70
2022/01/28 10:06:36;;;;;;;;;14.33;11.00;;;;;21.64;50.50;100509.19;110924;1261;22051;-69
2022/01/28 10:09:03;;;;;;;;;15.00;11.67;;;;;21.62;50.37;100514.08;110833;1261;19773;-69
2022/01/28 10:11:30;;;;;;;;;12.00;10.50;;;;;21.62;50.71;100521.96;112097;1262;18824;-69
2022/01/28 10:14:05;;;;;;;;;12.33;10.67;;;;;21.59;50.91;100524.20;111336;1261;21655;-70
2022/01/28 10:16:32;;;;;;;;;10.00;8.33;;;;;21.59;50.83;100519.71;110842;1261;22413;-69
2022/01/28 10:19:00;;;;;;;;;11.00;10.67;;;;;21.58;50.66;100532.58;110790;1261;21202;-70
2022/01/28 10:21:27;;;;;;;;;10.00;9.00;;;;;21.56;50.65;100543.32;111013;1261;19886;-69
2022/01/28 10:23:54;;;;;;;;;11.67;10.33;;;;;21.55;50.55;100554.96;110972;1260;19605;-69
2022/01/28 10:26:21;;;;;;;;;11.00;10.67;;;;;21.52;50.42;100553.48;110955;1262;19377;-70
2022/01/28 10:28:48;;;;;;;;;7.67;7.00;;;;;21.52;50.38;100560.92;110955;1262;18764;-67
2022/01/28 10:31:16;;;;;;;;;11.67;11.00;;;;;21.51;50.44;100563.21;110937;1261;19470;-69
2022/01/28 10:33:43;;;;;;;;;9.67;9.33;;;;;21.50;50.52;100568.65;111020;1262;19985;-69
2022/01/28 10:36:10;;;;;;;;;11.33;7.67;;;;;21.51;50.34;100563.96;110946;1262;19070;-69
2022/01/28 10:38:38;;;;;;;;;14.00;11.00;;;;;21.53;50.32;100572.31;110914;1262;19513;-70
2022/01/28 10:41:05;;;;;;;;;17.00;14.00;;;;;21.52;49.97;100575.17;111014;1262;18864;-69
2022/01/28 10:43:32;;;;;;;;;23.00;19.00;;;;;21.51;49.36;100578.91;111026;1261;20342;-70
2022/01/28 10:45:59;;;;;;;;;14.00;14.00;;;;;21.42;48.49;100575.14;110793;1262;19648;-68
2022/01/28 10:48:26;;;;;;;;;26.33;22.00;;;;;21.43;48.74;100579.56;110930;1262;18997;-70
2022/01/28 10:50:56;;;;;;;;;22.00;19.00;;;;;21.45;48.67;100578.52;110956;1261;18948;-70
2022/01/28 10:53:27;;;;;;;;;22.33;18.33;;;;;21.47;48.76;100582.08;110964;1261;22063;-69
2022/01/28 10:55:54;;;;;;;;;23.00;21.00;;;;;21.50;48.76;100587.81;110942;1262;18775;-71
2022/01/28 10:58:22;;;;;;;;;26.33;22.67;;;;;21.50;48.87;100591.31;111042;1261;18960;-67
2022/01/28 11:00:49;;;;;;;;;28.00;22.67;;;;;21.46;48.55;100592.02;110798;1262;20413;-66
2022/01/28 11:03:16;;;;;;;;;18.67;18.00;;;;;21.43;48.46;100602.27;110665;1262;22242;-66
2022/01/28 11:05:44;;;;;;;;;19.67;17.00;;;;;21.39;48.79;100608.15;110720;1262;25072;-64
2022/01/28 11:08:12;;;;;;;;;20.00;18.67;;;;;21.36;48.60;100606.90;111028;1261;19547;-66
2022/01/28 11:10:39;;;;;;;;;23.00;18.00;;;;;21.34;48.75;100614.94;110910;1262;20943;-67
2022/01/28 11:13:06;;;;;;;;;16.33;15.00;;;;;21.32;48.59;100622.01;111010;1262;18827;-66
2022/01/28 11:15:34;;;;;;;;;19.33;17.00;;;;;21.31;48.56;100628.37;110969;1261;21581;-66
2022/01/28 11:18:02;;;;;;;;;16.33;14.67;;;;;21.30;48.35;100634.88;110999;1262;18814;-66
2022/01/28 11:20:29;;;;;;;;;15.00;14.00;;;;;21.30;48.37;100637.61;111359;1256;18758;-65
2022/01/28 11:22:57;;;;;;;;;20.33;17.00;;;;;21.32;48.18;100649.77;111302;1258;19765;-67
2022/01/28 11:25:27;;;;;;;;;18.33;17.00;;;;;21.29;48.34;100654.66;111297;1258;18849;-67
2022/01/28 11:27:55;;;;;;;;;17.67;17.67;;;;;21.31;48.03;100652.81;111307;1258;18903;-66
2022/01/28 11:30:25;;;;;;;;;16.67;12.67;;;;;21.28;47.91;100662.96;111349;1258;19516;-66
2022/01/28 11:32:52;;;;;;;;;18.67;17.00;;;;;21.29;47.93;100670.08;111347;1258;18762;-65
2022/01/28 11:35:19;;;;;;;;;18.33;13.67;;;;;21.29;47.76;100678.47;111380;1258;19762;-65
2022/01/28 11:37:46;;;;;;;;;14.67;13.67;;;;;21.28;47.86;100681.82;111300;1256;22332;-66
2022/01/28 11:40:14;;;;;;;;;14.00;13.00;;;;;21.25;47.75;100682.49;111317;1258;20307;-64
2022/01/28 11:42:41;;;;;;;;;14.00;14.00;;;;;21.26;47.50;100686.06;111352;1258;18795;-67
2022/01/28 11:45:08;;;;;;;;;12.33;12.33;;;;;21.23;47.63;100684.52;111325;1258;21025;-66
2022/01/28 11:47:36;;;;;;;;;12.00;12.00;;;;;21.23;47.61;100685.71;111320;1258;18887;-66
2022/01/28 11:50:03;;;;;;;;;13.00;13.00;;;;;21.24;47.46;100688.89;111336;1258;22128;-65
2022/01/28 11:52:30;;;;;;;;;14.33;14.00;;;;;21.24;47.19;100695.40;111351;1258;19598;-66
2022/01/28 11:54:58;;;;;;;;;17.67;12.33;;;;;21.24;47.27;100698.70;111347;1258;19471;-66
2022/01/28 11:57:26;;;;;;;;;16.00;13.00;;;;;21.24;47.20;100706.30;111377;1256;22812;-65
2022/01/28 11:59:53;;;;;;;;;13.33;11.67;;;;;21.24;47.19;100713.34;111339;1258;22866;-64
2022/01/28 12:02:20;;;;;;;;;13.67;11.00;;;;;21.23;47.19;100718.16;111338;1258;18768;-65
2022/01/28 12:04:48;;;;;;;;;13.33;11.67;;;;;21.23;46.89;100720.95;111326;1257;18870;-66
2022/01/28 12:07:15;;;;;;;;;13.00;11.00;;;;;21.24;46.85;100726.51;111221;1256;19510;-67
2022/01/28 12:09:43;;;;;;;;;14.67;13.67;;;;;21.24;46.71;100732.67;111375;1257;18745;-67
2022/01/28 12:12:12;;;;;;;;;14.00;10.67;;;;;21.25;46.92;100737.06;111244;1257;18840;-66
2022/01/28 12:14:39;;;;;;;;;14.33;11.00;;;;;21.32;46.75;100746.41;111360;1258;21685;-66
2022/01/28 12:17:06;;;;;;;;;14.00;11.00;;;;;21.37;46.92;100761.88;111337;1258;22218;-67